sensor_id;sensor_type;location;lat;lon;timestamp;temperature;humidity
19809;DHT22;48538;32.784;-96.802;2023-04-01T00:02:12;25.40;50.70
19809;DHT22;48538;32.784;-96.802;2023-04-01T00:04:38;25.40;50.00
19809;DHT22;48538;32.784;-96.802;2023-04-01T00:07:04;25.30;50.30
19809;DHT22;48538;32.784;-96.802;2023-04-01T00:09:31;25.20;49.70
19809;DHT22;48538;32.784;-96.802;2023-04-01T00:11:57;25.10;49.50
19809;DHT22;48538;32.784;-96.802;2023-04-01T00:14:23;25.10;49.80
19809;DHT22;48538;32.784;-96.802;2023-04-01T00:16:50;25.00;50.00
19809;DHT22;48538;32.784;-96.802;2023-04-01T00:19:16;25.00;50.20
19809;DHT22;48538;32.784;-96.802;2023-04-01T00:21:42;24.90;50.70
19809;DHT22;48538;32.784;-96.802;2023-04-01T00:24:09;24.80;50.30
19809;DHT22;48538;32.784;-96.802;2023-04-01T00:26:35;24.70;50.40
19809;DHT22;48538;32.784;-96.802;2023-04-01T00:29:01;24.60;50.80
19809;DHT22;48538;32.784;-96.802;2023-04-01T00:31:28;24.60;50.70
19809;DHT22;48538;32.784;-96.802;2023-04-01T00:33:55;24.60;51.10
19809;DHT22;48538;32.784;-96.802;2023-04-01T00:36:22;24.50;50.10
19809;DHT22;48538;32.784;-96.802;2023-04-01T00:38:49;24.40;50.00
19809;DHT22;48538;32.784;-96.802;2023-04-01T00:41:17;24.40;48.90
19809;DHT22;48538;32.784;-96.802;2023-04-01T00:43:46;24.30;49.90
19809;DHT22;48538;32.784;-96.802;2023-04-01T00:46:13;24.20;49.10
19809;DHT22;48538;32.784;-96.802;2023-04-01T00:48:46;24.10;47.90
19809;DHT22;48538;32.784;-96.802;2023-04-01T00:51:20;24.10;47.90
19809;DHT22;48538;32.784;-96.802;2023-04-01T00:53:51;24.00;48.60
19809;DHT22;48538;32.784;-96.802;2023-04-01T00:56:33;24.00;47.20
19809;DHT22;48538;32.784;-96.802;2023-04-01T00:59:04;24.00;45.60
19809;DHT22;48538;32.784;-96.802;2023-04-01T01:01:32;24.00;45.90
19809;DHT22;48538;32.784;-96.802;2023-04-01T01:03:59;23.90;46.70
19809;DHT22;48538;32.784;-96.802;2023-04-01T01:06:47;23.80;46.20
19809;DHT22;48538;32.784;-96.802;2023-04-01T01:12:23;23.70;46.60
19809;DHT22;48538;32.784;-96.802;2023-04-01T01:17:49;23.60;46.50
19809;DHT22;48538;32.784;-96.802;2023-04-01T01:25:40;23.50;45.20
19809;DHT22;48538;32.784;-96.802;2023-04-01T01:31:32;23.40;44.00
19809;DHT22;48538;32.784;-96.802;2023-04-01T01:36:44;23.40;44.60
19809;DHT22;48538;32.784;-96.802;2023-04-01T01:39:12;23.30;43.70
19809;DHT22;48538;32.784;-96.802;2023-04-01T01:41:41;23.20;44.30
19809;DHT22;48538;32.784;-96.802;2023-04-01T01:44:11;23.20;44.10
19809;DHT22;48538;32.784;-96.802;2023-04-01T01:46:39;23.20;44.10
19809;DHT22;48538;32.784;-96.802;2023-04-01T01:49:07;23.10;43.90
19809;DHT22;48538;32.784;-96.802;2023-04-01T01:51:36;23.10;43.30
19809;DHT22;48538;32.784;-96.802;2023-04-01T01:54:02;23.10;43.90
19809;DHT22;48538;32.784;-96.802;2023-04-01T01:56:29;23.00;44.10
19809;DHT22;48538;32.784;-96.802;2023-04-01T01:59:05;22.90;43.60
19809;DHT22;48538;32.784;-96.802;2023-04-01T02:01:38;22.90;43.70
19809;DHT22;48538;32.784;-96.802;2023-04-01T02:04:05;22.90;42.70
19809;DHT22;48538;32.784;-96.802;2023-04-01T02:06:35;22.90;43.30
19809;DHT22;48538;32.784;-96.802;2023-04-01T02:09:06;22.90;42.90
19809;DHT22;48538;32.784;-96.802;2023-04-01T02:12:06;22.90;43.20
19809;DHT22;48538;32.784;-96.802;2023-04-01T02:14:52;22.80;43.30
19809;DHT22;48538;32.784;-96.802;2023-04-01T02:17:24;22.80;43.90
19809;DHT22;48538;32.784;-96.802;2023-04-01T02:22:33;22.60;43.80
19809;DHT22;48538;32.784;-96.802;2023-04-01T02:25:09;22.60;44.10
19809;DHT22;48538;32.784;-96.802;2023-04-01T02:27:37;22.50;44.00
19809;DHT22;48538;32.784;-96.802;2023-04-01T02:30:04;22.40;44.00
19809;DHT22;48538;32.784;-96.802;2023-04-01T02:32:31;22.50;43.70
19809;DHT22;48538;32.784;-96.802;2023-04-01T02:34:59;22.40;44.00
19809;DHT22;48538;32.784;-96.802;2023-04-01T02:37:29;22.40;43.90
19809;DHT22;48538;32.784;-96.802;2023-04-01T02:40:02;22.30;44.70
19809;DHT22;48538;32.784;-96.802;2023-04-01T02:42:29;22.20;44.90
19809;DHT22;48538;32.784;-96.802;2023-04-01T02:44:55;22.20;44.80
19809;DHT22;48538;32.784;-96.802;2023-04-01T02:47:21;22.20;45.10
19809;DHT22;48538;32.784;-96.802;2023-04-01T02:49:48;22.00;45.80
19809;DHT22;48538;32.784;-96.802;2023-04-01T02:52:14;22.00;46.10
19809;DHT22;48538;32.784;-96.802;2023-04-01T02:54:40;21.90;46.10
19809;DHT22;48538;32.784;-96.802;2023-04-01T02:57:07;21.90;45.80
19809;DHT22;48538;32.784;-96.802;2023-04-01T02:59:33;21.80;45.60
19809;DHT22;48538;32.784;-96.802;2023-04-01T03:01:59;21.80;46.10
19809;DHT22;48538;32.784;-96.802;2023-04-01T03:04:25;21.70;46.40
19809;DHT22;48538;32.784;-96.802;2023-04-01T03:06:52;21.70;46.10
19809;DHT22;48538;32.784;-96.802;2023-04-01T03:09:18;21.80;45.00
19809;DHT22;48538;32.784;-96.802;2023-04-01T03:11:44;21.90;45.10
19809;DHT22;48538;32.784;-96.802;2023-04-01T03:14:11;21.90;45.20
19809;DHT22;48538;32.784;-96.802;2023-04-01T03:16:37;21.80;45.50
19809;DHT22;48538;32.784;-96.802;2023-04-01T03:19:03;21.80;46.00
19809;DHT22;48538;32.784;-96.802;2023-04-01T03:21:30;21.80;45.30
19809;DHT22;48538;32.784;-96.802;2023-04-01T03:23:56;21.70;45.90
19809;DHT22;48538;32.784;-96.802;2023-04-01T03:26:22;21.80;45.50
19809;DHT22;48538;32.784;-96.802;2023-04-01T03:28:49;21.80;45.40
19809;DHT22;48538;32.784;-96.802;2023-04-01T03:31:15;21.90;44.00
19809;DHT22;48538;32.784;-96.802;2023-04-01T03:33:42;22.10;43.20
19809;DHT22;48538;32.784;-96.802;2023-04-01T03:36:08;22.10;43.50
19809;DHT22;48538;32.784;-96.802;2023-04-01T03:38:37;22.20;43.60
19809;DHT22;48538;32.784;-96.802;2023-04-01T03:41:04;22.20;42.80
19809;DHT22;48538;32.784;-96.802;2023-04-01T03:43:30;22.20;43.20
19809;DHT22;48538;32.784;-96.802;2023-04-01T03:45:57;22.20;43.50
19809;DHT22;48538;32.784;-96.802;2023-04-01T03:48:24;22.20;42.90
19809;DHT22;48538;32.784;-96.802;2023-04-01T03:50:51;22.30;42.10
19809;DHT22;48538;32.784;-96.802;2023-04-01T03:53:17;22.40;42.30
19809;DHT22;48538;32.784;-96.802;2023-04-01T03:55:44;22.30;42.70
19809;DHT22;48538;32.784;-96.802;2023-04-01T03:58:10;22.30;43.20
19809;DHT22;48538;32.784;-96.802;2023-04-01T04:00:36;22.20;43.30
19809;DHT22;48538;32.784;-96.802;2023-04-01T04:03:03;22.20;43.30
19809;DHT22;48538;32.784;-96.802;2023-04-01T04:05:29;22.20;43.50
19809;DHT22;48538;32.784;-96.802;2023-04-01T04:07:55;22.20;43.50
19809;DHT22;48538;32.784;-96.802;2023-04-01T04:10:22;22.10;44.00
19809;DHT22;48538;32.784;-96.802;2023-04-01T04:12:49;22.10;43.60
19809;DHT22;48538;32.784;-96.802;2023-04-01T04:15:16;22.10;43.60
19809;DHT22;48538;32.784;-96.802;2023-04-01T04:17:42;22.00;43.90
19809;DHT22;48538;32.784;-96.802;2023-04-01T04:20:09;22.00;43.70
19809;DHT22;48538;32.784;-96.802;2023-04-01T04:22:36;22.00;44.30
19809;DHT22;48538;32.784;-96.802;2023-04-01T04:25:02;21.90;44.30
19809;DHT22;48538;32.784;-96.802;2023-04-01T04:27:28;21.90;44.60
19809;DHT22;48538;32.784;-96.802;2023-04-01T04:29:55;21.80;44.60
19809;DHT22;48538;32.784;-96.802;2023-04-01T04:32:22;21.80;45.00
19809;DHT22;48538;32.784;-96.802;2023-04-01T04:34:48;21.70;45.00
19809;DHT22;48538;32.784;-96.802;2023-04-01T04:37:14;21.60;45.70
19809;DHT22;48538;32.784;-96.802;2023-04-01T04:39:41;21.50;46.00
19809;DHT22;48538;32.784;-96.802;2023-04-01T04:42:07;21.50;46.50
19809;DHT22;48538;32.784;-96.802;2023-04-01T04:44:33;21.40;45.90
19809;DHT22;48538;32.784;-96.802;2023-04-01T04:47:00;21.40;46.00
19809;DHT22;48538;32.784;-96.802;2023-04-01T04:49:26;21.40;45.60
19809;DHT22;48538;32.784;-96.802;2023-04-01T04:51:53;21.40;46.30
19809;DHT22;48538;32.784;-96.802;2023-04-01T04:54:19;21.30;46.80
19809;DHT22;48538;32.784;-96.802;2023-04-01T04:56:45;21.10;47.10
19809;DHT22;48538;32.784;-96.802;2023-04-01T04:59:12;21.10;47.30
19809;DHT22;48538;32.784;-96.802;2023-04-01T05:01:38;21.00;46.80
19809;DHT22;48538;32.784;-96.802;2023-04-01T05:04:05;21.00;47.20
19809;DHT22;48538;32.784;-96.802;2023-04-01T05:06:31;21.00;46.70
19809;DHT22;48538;32.784;-96.802;2023-04-01T05:08:57;21.10;46.50
19809;DHT22;48538;32.784;-96.802;2023-04-01T05:11:24;21.10;46.40
19809;DHT22;48538;32.784;-96.802;2023-04-01T05:13:51;21.10;46.30
19809;DHT22;48538;32.784;-96.802;2023-04-01T05:16:19;21.10;46.40
19809;DHT22;48538;32.784;-96.802;2023-04-01T05:18:46;21.10;46.60
19809;DHT22;48538;32.784;-96.802;2023-04-01T05:21:14;21.10;47.40
19809;DHT22;48538;32.784;-96.802;2023-04-01T05:23:41;21.10;47.10
19809;DHT22;48538;32.784;-96.802;2023-04-01T05:26:10;21.10;46.80
19809;DHT22;48538;32.784;-96.802;2023-04-01T05:28:36;21.20;45.20
19809;DHT22;48538;32.784;-96.802;2023-04-01T05:31:05;21.30;45.00
19809;DHT22;48538;32.784;-96.802;2023-04-01T05:33:31;21.30;44.50
19809;DHT22;48538;32.784;-96.802;2023-04-01T05:36:13;21.30;44.90
19809;DHT22;48538;32.784;-96.802;2023-04-01T05:38:40;21.30;44.70
19809;DHT22;48538;32.784;-96.802;2023-04-01T05:41:08;21.30;45.10
19809;DHT22;48538;32.784;-96.802;2023-04-01T05:43:38;21.30;44.90
19809;DHT22;48538;32.784;-96.802;2023-04-01T05:46:04;21.30;45.50
19809;DHT22;48538;32.784;-96.802;2023-04-01T05:48:32;21.30;44.50
19809;DHT22;48538;32.784;-96.802;2023-04-01T05:50:58;21.30;44.70
19809;DHT22;48538;32.784;-96.802;2023-04-01T05:53:24;21.20;44.90
19809;DHT22;48538;32.784;-96.802;2023-04-01T05:55:51;21.30;44.90
19809;DHT22;48538;32.784;-96.802;2023-04-01T05:58:17;21.30;44.50
19809;DHT22;48538;32.784;-96.802;2023-04-01T06:00:44;21.20;45.30
19809;DHT22;48538;32.784;-96.802;2023-04-01T06:03:10;21.20;44.00
19809;DHT22;48538;32.784;-96.802;2023-04-01T06:05:43;21.30;44.80
19809;DHT22;48538;32.784;-96.802;2023-04-01T06:08:15;21.20;44.60
19809;DHT22;48538;32.784;-96.802;2023-04-01T06:10:53;21.20;44.50
19809;DHT22;48538;32.784;-96.802;2023-04-01T06:19:15;21.30;43.50
19809;DHT22;48538;32.784;-96.802;2023-04-01T06:22:18;21.20;44.50
19809;DHT22;48538;32.784;-96.802;2023-04-01T06:39:47;21.10;44.20
19809;DHT22;48538;32.784;-96.802;2023-04-01T06:46:11;21.00;45.40
19809;DHT22;48538;32.784;-96.802;2023-04-01T06:52:09;20.80;45.60
19809;DHT22;48538;32.784;-96.802;2023-04-01T06:54:52;20.80;45.60
19809;DHT22;48538;32.784;-96.802;2023-04-01T06:59:54;20.60;47.00
19809;DHT22;48538;32.784;-96.802;2023-04-01T07:02:48;20.60;45.50
19809;DHT22;48538;32.784;-96.802;2023-04-01T07:05:20;20.50;46.20
19809;DHT22;48538;32.784;-96.802;2023-04-01T07:07:50;20.40;47.20
19809;DHT22;48538;32.784;-96.802;2023-04-01T07:10:46;20.30;47.40
19809;DHT22;48538;32.784;-96.802;2023-04-01T07:13:33;20.20;48.20
19809;DHT22;48538;32.784;-96.802;2023-04-01T07:16:39;20.00;49.50
19809;DHT22;48538;32.784;-96.802;2023-04-01T07:19:11;19.70;49.80
19809;DHT22;48538;32.784;-96.802;2023-04-01T07:21:48;19.60;50.30
19809;DHT22;48538;32.784;-96.802;2023-04-01T07:24:22;19.60;50.30
19809;DHT22;48538;32.784;-96.802;2023-04-01T07:26:56;19.50;50.90
19809;DHT22;48538;32.784;-96.802;2023-04-01T07:29:23;19.50;51.30
19809;DHT22;48538;32.784;-96.802;2023-04-01T07:34:50;19.30;50.60
19809;DHT22;48538;32.784;-96.802;2023-04-01T07:37:46;19.30;50.90
19809;DHT22;48538;32.784;-96.802;2023-04-01T07:51:01;19.20;51.70
19809;DHT22;48538;32.784;-96.802;2023-04-01T07:56:15;19.10;50.80
19809;DHT22;48538;32.784;-96.802;2023-04-01T08:01:40;18.90;51.10
19809;DHT22;48538;32.784;-96.802;2023-04-01T08:09:43;19.10;49.50
19809;DHT22;48538;32.784;-96.802;2023-04-01T08:17:19;19.30;48.90
19809;DHT22;48538;32.784;-96.802;2023-04-01T08:20:14;19.40;48.00
19809;DHT22;48538;32.784;-96.802;2023-04-01T08:22:51;19.40;48.40
19809;DHT22;48538;32.784;-96.802;2023-04-01T08:25:24;19.40;48.00
19809;DHT22;48538;32.784;-96.802;2023-04-01T08:28:04;19.50;47.40
19809;DHT22;48538;32.784;-96.802;2023-04-01T08:30:49;19.50;47.60
19809;DHT22;48538;32.784;-96.802;2023-04-01T08:33:26;19.60;47.40
19809;DHT22;48538;32.784;-96.802;2023-04-01T08:47:37;20.20;44.50
19809;DHT22;48538;32.784;-96.802;2023-04-01T08:53:24;20.20;45.60
19809;DHT22;48538;32.784;-96.802;2023-04-01T08:56:13;20.10;45.80
19809;DHT22;48538;32.784;-96.802;2023-04-01T09:01:41;20.00;45.60
19809;DHT22;48538;32.784;-96.802;2023-04-01T09:07:12;19.80;45.90
19809;DHT22;48538;32.784;-96.802;2023-04-01T09:12:23;19.60;47.60
19809;DHT22;48538;32.784;-96.802;2023-04-01T09:15:16;19.60;46.30
19809;DHT22;48538;32.784;-96.802;2023-04-01T09:18:24;19.60;46.60
19809;DHT22;48538;32.784;-96.802;2023-04-01T09:41:31;19.00;49.50
19809;DHT22;48538;32.784;-96.802;2023-04-01T09:46:44;18.80;49.60
19809;DHT22;48538;32.784;-96.802;2023-04-01T09:55:18;18.50;51.10
19809;DHT22;48538;32.784;-96.802;2023-04-01T09:58:06;18.40;50.90
19809;DHT22;48538;32.784;-96.802;2023-04-01T10:06:00;18.20;51.80
19809;DHT22;48538;32.784;-96.802;2023-04-01T10:11:15;18.10;51.40
19809;DHT22;48538;32.784;-96.802;2023-04-01T10:14:00;18.20;51.40
19809;DHT22;48538;32.784;-96.802;2023-04-01T10:42:28;18.60;49.20
19809;DHT22;48538;32.784;-96.802;2023-04-01T10:53:49;18.50;49.40
19809;DHT22;48538;32.784;-96.802;2023-04-01T10:56:43;18.40;50.10
19809;DHT22;48538;32.784;-96.802;2023-04-01T11:02:36;18.20;50.60
19809;DHT22;48538;32.784;-96.802;2023-04-01T11:08:31;18.00;51.70
19809;DHT22;48538;32.784;-96.802;2023-04-01T11:17:07;17.80;53.10
19809;DHT22;48538;32.784;-96.802;2023-04-01T11:26:00;17.60;54.80
19809;DHT22;48538;32.784;-96.802;2023-04-01T11:28:40;17.50;55.40
19809;DHT22;48538;32.784;-96.802;2023-04-01T11:31:15;17.40;56.00
19809;DHT22;48538;32.784;-96.802;2023-04-01T11:33:45;17.40;56.60
19809;DHT22;48538;32.784;-96.802;2023-04-01T11:36:21;17.30;56.70
19809;DHT22;48538;32.784;-96.802;2023-04-01T11:39:09;17.30;56.80
19809;DHT22;48538;32.784;-96.802;2023-04-01T11:44:19;17.20;57.20
19809;DHT22;48538;32.784;-96.802;2023-04-01T11:50:00;17.10;57.60
19809;DHT22;48538;32.784;-96.802;2023-04-01T12:01:12;16.90;58.60
19809;DHT22;48538;32.784;-96.802;2023-04-01T12:06:35;16.80;59.00
19809;DHT22;48538;32.784;-96.802;2023-04-01T12:12:13;16.70;59.60
19809;DHT22;48538;32.784;-96.802;2023-04-01T12:14:49;16.70;59.80
19809;DHT22;48538;32.784;-96.802;2023-04-01T12:17:45;16.70;60.30
19809;DHT22;48538;32.784;-96.802;2023-04-01T12:20:22;16.60;60.80
19809;DHT22;48538;32.784;-96.802;2023-04-01T12:31:13;16.40;61.90
19809;DHT22;48538;32.784;-96.802;2023-04-01T12:33:49;16.40;62.10
19809;DHT22;48538;32.784;-96.802;2023-04-01T12:36:40;16.30;62.30
19809;DHT22;48538;32.784;-96.802;2023-04-01T12:45:32;16.40;63.00
19809;DHT22;48538;32.784;-96.802;2023-04-01T12:48:22;16.40;63.20
19809;DHT22;48538;32.784;-96.802;2023-04-01T12:53:57;16.50;63.60
19809;DHT22;48538;32.784;-96.802;2023-04-01T12:56:57;16.50;63.40
19809;DHT22;48538;32.784;-96.802;2023-04-01T13:08:14;16.30;64.60
19809;DHT22;48538;32.784;-96.802;2023-04-01T13:17:31;16.40;65.60
19809;DHT22;48538;32.784;-96.802;2023-04-01T13:20:03;16.50;65.20
19809;DHT22;48538;32.784;-96.802;2023-04-01T13:25:53;16.70;66.00
19809;DHT22;48538;32.784;-96.802;2023-04-01T13:28:39;16.70;66.50
19809;DHT22;48538;32.784;-96.802;2023-04-01T13:31:34;16.80;65.50
19809;DHT22;48538;32.784;-96.802;2023-04-01T13:34:27;16.80;65.90
19809;DHT22;48538;32.784;-96.802;2023-04-01T13:43:02;16.90;65.90
19809;DHT22;48538;32.784;-96.802;2023-04-01T13:45:48;16.80;66.80
19809;DHT22;48538;32.784;-96.802;2023-04-01T13:48:45;16.70;67.40
19809;DHT22;48538;32.784;-96.802;2023-04-01T14:01:59;16.70;67.00
19809;DHT22;48538;32.784;-96.802;2023-04-01T14:04:59;16.80;67.80
19809;DHT22;48538;32.784;-96.802;2023-04-01T14:16:51;16.90;67.60
19809;DHT22;48538;32.784;-96.802;2023-04-01T14:33:42;17.60;67.40
19809;DHT22;48538;32.784;-96.802;2023-04-01T14:41:50;17.60;66.70
19809;DHT22;48538;32.784;-96.802;2023-04-01T14:49:53;17.80;66.70
19809;DHT22;48538;32.784;-96.802;2023-04-01T14:54:48;17.90;67.70
19809;DHT22;48538;32.784;-96.802;2023-04-01T14:57:30;17.80;66.10
19809;DHT22;48538;32.784;-96.802;2023-04-01T15:00:17;17.80;65.80
19809;DHT22;48538;32.784;-96.802;2023-04-01T15:02:58;17.90;66.00
19809;DHT22;48538;32.784;-96.802;2023-04-01T15:14:01;17.80;65.30
19809;DHT22;48538;32.784;-96.802;2023-04-01T15:22:32;18.00;66.00
19809;DHT22;48538;32.784;-96.802;2023-04-01T15:30:57;18.40;67.20
19809;DHT22;48538;32.784;-96.802;2023-04-01T15:33:47;18.10;68.20
19809;DHT22;48538;32.784;-96.802;2023-04-01T15:41:58;18.30;67.00
19809;DHT22;48538;32.784;-96.802;2023-04-01T15:44:55;18.40;67.50
19809;DHT22;48538;32.784;-96.802;2023-04-01T15:52:55;18.30;68.80
19809;DHT22;48538;32.784;-96.802;2023-04-01T15:55:37;18.40;69.40
19809;DHT22;48538;32.784;-96.802;2023-04-01T15:58:33;18.50;68.50
19809;DHT22;48538;32.784;-96.802;2023-04-01T16:20:20;19.00;67.80
19809;DHT22;48538;32.784;-96.802;2023-04-01T16:23:02;19.00;67.70
19809;DHT22;48538;32.784;-96.802;2023-04-01T16:31:37;19.40;66.00
19809;DHT22;48538;32.784;-96.802;2023-04-01T16:37:07;19.40;67.50
19809;DHT22;48538;32.784;-96.802;2023-04-01T16:42:43;19.30;67.60
19809;DHT22;48538;32.784;-96.802;2023-04-01T16:47:58;19.60;66.20
19809;DHT22;48538;32.784;-96.802;2023-04-01T16:53:21;19.60;67.70
19809;DHT22;48538;32.784;-96.802;2023-04-01T16:56:21;19.60;67.10
19809;DHT22;48538;32.784;-96.802;2023-04-01T17:04:19;20.00;65.10
19809;DHT22;48538;32.784;-96.802;2023-04-01T17:06:54;20.10;65.40
19809;DHT22;48538;32.784;-96.802;2023-04-01T17:09:50;20.20;65.80
19809;DHT22;48538;32.784;-96.802;2023-04-01T17:15:30;20.10;66.20
19809;DHT22;48538;32.784;-96.802;2023-04-01T17:18:20;20.30;66.50
19809;DHT22;48538;32.784;-96.802;2023-04-01T17:21:25;20.40;64.20
19809;DHT22;48538;32.784;-96.802;2023-04-01T17:23:53;20.30;64.00
19809;DHT22;48538;32.784;-96.802;2023-04-01T17:26:49;20.30;65.60
19809;DHT22;48538;32.784;-96.802;2023-04-01T17:49:26;20.50;65.20
19809;DHT22;48538;32.784;-96.802;2023-04-01T17:57:48;20.70;64.80
19809;DHT22;48538;32.784;-96.802;2023-04-01T18:00:24;20.80;64.90
19809;DHT22;48538;32.784;-96.802;2023-04-01T18:15:04;21.20;61.90
19809;DHT22;48538;32.784;-96.802;2023-04-01T18:20:38;21.30;63.60
19809;DHT22;48538;32.784;-96.802;2023-04-01T18:23:28;21.20;62.50
19809;DHT22;48538;32.784;-96.802;2023-04-01T18:26:12;21.20;63.20
19809;DHT22;48538;32.784;-96.802;2023-04-01T18:29:34;21.20;64.00
19809;DHT22;48538;32.784;-96.802;2023-04-01T18:31:40;21.40;65.10
19809;DHT22;48538;32.784;-96.802;2023-04-01T18:37:47;21.60;64.30
19809;DHT22;48538;32.784;-96.802;2023-04-01T18:39:51;21.60;65.00
19809;DHT22;48538;32.784;-96.802;2023-04-01T18:45:18;21.40;61.00
19809;DHT22;48538;32.784;-96.802;2023-04-01T18:51:44;21.30;61.40
19809;DHT22;48538;32.784;-96.802;2023-04-01T18:53:45;21.30;61.50
19809;DHT22;48538;32.784;-96.802;2023-04-01T18:56:26;21.40;61.40
19809;DHT22;48538;32.784;-96.802;2023-04-01T18:59:08;21.60;61.30
19809;DHT22;48538;32.784;-96.802;2023-04-01T19:05:08;21.60;62.20
19809;DHT22;48538;32.784;-96.802;2023-04-01T19:07:51;21.70;62.90
19809;DHT22;48538;32.784;-96.802;2023-04-01T19:15:33;22.00;59.90
19809;DHT22;48538;32.784;-96.802;2023-04-01T19:21:10;21.90;59.70
19809;DHT22;48538;32.784;-96.802;2023-04-01T19:23:53;21.90;60.00
19809;DHT22;48538;32.784;-96.802;2023-04-01T19:26:48;21.80;59.80
19809;DHT22;48538;32.784;-96.802;2023-04-01T19:29:35;21.80;60.80
19809;DHT22;48538;32.784;-96.802;2023-04-01T19:35:18;22.10;61.00
19809;DHT22;48538;32.784;-96.802;2023-04-01T20:01:00;22.50;63.80
19809;DHT22;48538;32.784;-96.802;2023-04-01T20:15:36;22.70;64.00
19809;DHT22;48538;32.784;-96.802;2023-04-01T20:20:39;22.70;64.10
19809;DHT22;48538;32.784;-96.802;2023-04-01T20:23:33;22.80;64.10
19809;DHT22;48538;32.784;-96.802;2023-04-01T20:26:32;22.80;62.50
19809;DHT22;48538;32.784;-96.802;2023-04-01T20:37:50;22.80;61.90
19809;DHT22;48538;32.784;-96.802;2023-04-01T20:40:41;22.80;61.30
19809;DHT22;48538;32.784;-96.802;2023-04-01T20:43:22;22.80;60.00
19809;DHT22;48538;32.784;-96.802;2023-04-01T20:46:20;22.80;61.80
19809;DHT22;48538;32.784;-96.802;2023-04-01T20:49:20;22.80;62.00
19809;DHT22;48538;32.784;-96.802;2023-04-01T20:54:51;22.80;60.80
19809;DHT22;48538;32.784;-96.802;2023-04-01T21:00:27;22.90;60.30
19809;DHT22;48538;32.784;-96.802;2023-04-01T21:11:43;23.10;61.60
19809;DHT22;48538;32.784;-96.802;2023-04-01T21:30:43;22.90;61.00
19809;DHT22;48538;32.784;-96.802;2023-04-01T21:42:22;22.90;59.90
19809;DHT22;48538;32.784;-96.802;2023-04-01T21:55:37;23.00;61.60
19809;DHT22;48538;32.784;-96.802;2023-04-01T22:03:51;22.90;63.00
19809;DHT22;48538;32.784;-96.802;2023-04-01T22:06:38;23.00;62.70
19809;DHT22;48538;32.784;-96.802;2023-04-01T22:09:28;23.10;62.00
19809;DHT22;48538;32.784;-96.802;2023-04-01T22:12:23;23.00;62.80
19809;DHT22;48538;32.784;-96.802;2023-04-01T22:15:20;23.10;62.00
19809;DHT22;48538;32.784;-96.802;2023-04-01T22:20:33;23.10;61.00
19809;DHT22;48538;32.784;-96.802;2023-04-01T22:23:12;23.10;62.30
19809;DHT22;48538;32.784;-96.802;2023-04-01T22:31:31;23.10;61.60
19809;DHT22;48538;32.784;-96.802;2023-04-01T22:36:53;23.00;61.90
19809;DHT22;48538;32.784;-96.802;2023-04-01T22:39:41;23.00;60.30
19809;DHT22;48538;32.784;-96.802;2023-04-01T22:45:11;23.00;60.70
19809;DHT22;48538;32.784;-96.802;2023-04-01T22:54:07;22.80;59.90
19809;DHT22;48538;32.784;-96.802;2023-04-01T22:56:38;22.80;59.90
19809;DHT22;48538;32.784;-96.802;2023-04-01T22:59:24;22.70;59.00
19809;DHT22;48538;32.784;-96.802;2023-04-01T23:01:59;22.70;60.00
19809;DHT22;48538;32.784;-96.802;2023-04-01T23:04:35;22.70;59.80
19809;DHT22;48538;32.784;-96.802;2023-04-01T23:07:14;22.70;58.70
19809;DHT22;48538;32.784;-96.802;2023-04-01T23:09:47;22.70;59.20
19809;DHT22;48538;32.784;-96.802;2023-04-01T23:12:16;22.70;59.10
19809;DHT22;48538;32.784;-96.802;2023-04-01T23:14:52;22.80;59.00
19809;DHT22;48538;32.784;-96.802;2023-04-01T23:17:36;22.80;59.00
19809;DHT22;48538;32.784;-96.802;2023-04-01T23:26:06;22.60;58.20
19809;DHT22;48538;32.784;-96.802;2023-04-01T23:28:44;22.50;59.90
19809;DHT22;48538;32.784;-96.802;2023-04-01T23:31:44;22.50;59.40
19809;DHT22;48538;32.784;-96.802;2023-04-01T23:36:55;22.40;60.00
19809;DHT22;48538;32.784;-96.802;2023-04-01T23:39:24;22.40;59.50
19809;DHT22;48538;32.784;-96.802;2023-04-01T23:41:55;22.40;59.10
19809;DHT22;48538;32.784;-96.802;2023-04-01T23:44:24;22.30;59.30
19809;DHT22;48538;32.784;-96.802;2023-04-01T23:46:52;22.40;59.30
19809;DHT22;48538;32.784;-96.802;2023-04-01T23:49:25;22.40;59.20
19809;DHT22;48538;32.784;-96.802;2023-04-01T23:55:21;22.40;59.70
19809;DHT22;48538;32.784;-96.802;2023-04-01T23:58:19;22.50;59.60
